createdAt,value
2018-06-29T00:00:55.161Z,73.60
2018-06-29T00:03:29.104Z,73.20
2018-06-29T00:06:02.903Z,73.20
2018-06-29T00:11:09.555Z,74.00
2018-06-29T00:13:44.629Z,73.00
2018-06-29T00:18:51.594Z,72.10
2018-06-29T00:21:25.342Z,71.60
2018-06-29T00:23:59.361Z,71.20
2018-06-29T00:26:33.754Z,70.80
2018-06-29T00:31:39.813Z,70.70
2018-06-29T00:34:13.508Z,70.40
2018-06-29T00:36:47.729Z,70.20
2018-06-29T00:39:21.820Z,69.80
2018-06-29T00:41:55.590Z,69.70
2018-06-29T00:47:01.955Z,69.70
2018-06-29T00:49:35.792Z,69.90
2018-06-29T00:52:10.401Z,70.00
2018-06-29T00:54:45.014Z,69.80
2018-06-29T00:57:18.976Z,69.80
2018-06-29T00:59:53.075Z,69.90
2018-06-29T01:05:05.041Z,70.40
2018-06-29T01:07:39.348Z,69.90
2018-06-29T01:12:45.062Z,69.60
2018-06-29T01:15:19.754Z,68.50
2018-06-29T01:17:53.781Z,68.30
2018-06-29T01:20:27.967Z,67.80
2018-06-29T01:23:02.005Z,67.60
2018-06-29T01:25:36.522Z,67.20
2018-06-29T01:28:10.124Z,67.30
2018-06-29T01:30:44.181Z,66.40
2018-06-29T01:33:18.553Z,65.90
2018-06-29T01:35:52.801Z,65.40
2018-06-29T01:38:26.626Z,65.10
2018-06-29T01:41:01.598Z,65.00
2018-06-29T01:43:36.414Z,64.50
2018-06-29T01:46:10.414Z,64.70
2018-06-29T01:48:44.981Z,64.50
2018-06-29T01:51:19.054Z,64.30
2018-06-29T01:53:53.292Z,64.40
2018-06-29T01:56:27.159Z,64.10
2018-06-29T01:59:01.328Z,63.70
2018-06-29T02:01:35.703Z,63.10
2018-06-29T02:04:09.817Z,62.90
2018-06-29T02:06:43.847Z,62.80
2018-06-29T02:09:19.078Z,62.10
2018-06-29T02:11:53.232Z,62.40
2018-06-29T02:14:27.126Z,61.90
2018-06-29T02:17:02.842Z,61.90
2018-06-29T02:19:37.233Z,61.60
2018-06-29T02:22:11.170Z,60.40
2018-06-29T02:24:45.491Z,60.50
2018-06-29T02:27:19.556Z,60.10
2018-06-29T02:34:58.510Z,59.40
2018-06-29T02:40:05.550Z,58.70
2018-06-29T02:42:39.362Z,58.70
2018-06-29T02:45:13.402Z,58.50
2018-06-29T02:47:47.893Z,57.90
2018-06-29T02:50:21.937Z,57.60
2018-06-29T02:52:55.658Z,57.70
2018-06-29T02:55:31.741Z,57.10
2018-06-29T02:58:05.429Z,56.90
2018-06-29T03:00:39.363Z,57.00
2018-06-29T03:03:13.459Z,56.70
2018-06-29T03:05:47.281Z,56.80
2018-06-29T03:08:21.513Z,56.80
2018-06-29T03:10:55.580Z,56.70
2018-06-29T03:13:29.272Z,56.80
2018-06-29T03:16:03.131Z,56.30
2018-06-29T03:18:37.846Z,56.00
2018-06-29T03:21:11.790Z,56.20
2018-06-29T03:23:45.721Z,55.70
2018-06-29T03:26:19.845Z,55.60
2018-06-29T03:28:54.644Z,55.20
2018-06-29T03:31:29.521Z,55.10
2018-06-29T03:34:04.699Z,55.30
2018-06-29T03:36:38.649Z,55.00
2018-06-29T03:39:13.767Z,55.20
2018-06-29T03:41:48.241Z,55.00
2018-06-29T03:44:22.304Z,55.00
2018-06-29T03:46:58.252Z,55.10
2018-06-29T03:49:33.211Z,55.10
2018-06-29T03:52:07.099Z,55.10
2018-06-29T03:54:41.134Z,54.90
2018-06-29T03:57:15.031Z,54.60
2018-06-29T03:59:49.271Z,54.40
2018-06-29T04:02:23.252Z,54.30
2018-06-29T04:04:57.100Z,54.20
2018-06-29T04:07:31.344Z,54.20
2018-06-29T04:12:38.605Z,53.90
2018-06-29T04:15:13.280Z,53.70
2018-06-29T04:17:47.155Z,53.70
2018-06-29T04:20:22.140Z,53.70
2018-06-29T04:22:57.046Z,54.00
2018-06-29T04:28:03.351Z,54.10
2018-06-29T04:30:37.794Z,53.90
2018-06-29T04:33:11.874Z,53.80
2018-06-29T04:35:45.777Z,53.80
2018-06-29T04:38:19.939Z,53.70
2018-06-29T04:40:54.621Z,54.00
2018-06-29T04:43:28.436Z,53.40
2018-06-29T04:46:02.513Z,53.00
2018-06-29T04:48:37.272Z,52.90
2018-06-29T04:51:11.096Z,52.60
2018-06-29T04:53:45.066Z,52.70
2018-06-29T04:56:19.092Z,52.70
2018-06-29T04:58:53.168Z,52.20
2018-06-29T05:01:27.551Z,52.20
2018-06-29T05:04:02.492Z,52.10
2018-06-29T05:06:38.148Z,52.00
2018-06-29T05:09:12.326Z,52.00
2018-06-29T05:14:19.461Z,51.60
2018-06-29T05:16:55.484Z,51.30
2018-06-29T05:19:30.446Z,51.00
2018-06-29T05:22:05.640Z,50.80
2018-06-29T05:24:39.674Z,51.00
2018-06-29T05:27:13.483Z,51.30
2018-06-29T05:29:47.530Z,51.30
2018-06-29T05:32:21.299Z,51.50
2018-06-29T05:34:55.525Z,51.40
2018-06-29T05:37:29.282Z,51.40
2018-06-29T05:40:03.377Z,51.40
2018-06-29T05:42:38.154Z,51.30
2018-06-29T05:45:12.139Z,51.00
2018-06-29T05:47:45.851Z,50.80
2018-06-29T05:50:19.620Z,50.80
2018-06-29T05:52:53.903Z,50.50
2018-06-29T05:55:27.668Z,50.30
2018-06-29T05:58:01.669Z,50.10
2018-06-29T06:00:37.336Z,50.10
2018-06-29T06:03:12.173Z,50.10
2018-06-29T06:08:19.214Z,50.20
2018-06-29T06:10:53.360Z,49.90
2018-06-29T06:13:28.731Z,49.80
2018-06-29T06:16:03.771Z,49.70
2018-06-29T06:18:37.997Z,49.60
2018-06-29T06:23:45.304Z,49.20
2018-06-29T06:26:19.178Z,49.40
2018-06-29T06:28:53.533Z,49.90
2018-06-29T06:31:27.527Z,49.50
2018-06-29T06:34:01.973Z,49.30
2018-06-29T06:36:36.126Z,49.20
2018-06-29T06:39:13.705Z,48.80
2018-06-29T06:41:47.888Z,48.60
2018-06-29T06:44:21.905Z,48.40
2018-06-29T06:46:55.966Z,47.90
2018-06-29T06:49:30.371Z,48.10
2018-06-29T06:52:04.478Z,47.90
2018-06-29T06:54:38.781Z,47.40
2018-06-29T06:57:13.230Z,47.30
2018-06-29T06:59:49.062Z,47.40
2018-06-29T07:02:24.523Z,47.50
2018-06-29T07:04:58.976Z,47.50
2018-06-29T07:12:43.751Z,46.90
2018-06-29T07:15:19.046Z,47.00
2018-06-29T07:28:50.427Z,47.30
2018-06-29T07:33:59.388Z,47.30
2018-06-29T07:36:34.223Z,47.80
2018-06-29T07:39:13.954Z,47.60
2018-06-29T07:41:50.289Z,47.40
2018-06-29T07:44:27.207Z,47.70
2018-06-29T07:47:02.698Z,48.40
2018-06-29T07:49:38.415Z,47.60
2018-06-29T07:52:14.450Z,47.30
2018-06-29T07:54:50.590Z,46.80
2018-06-29T07:57:31.836Z,46.80
2018-06-29T08:00:06.478Z,46.90
2018-06-29T08:02:40.549Z,46.70
2018-06-29T08:05:15.479Z,46.90
2018-06-29T08:07:49.362Z,47.20
2018-06-29T08:10:23.787Z,47.40
2018-06-29T08:12:58.374Z,47.60
2018-06-29T08:15:33.880Z,47.30
2018-06-29T08:18:08.843Z,47.20
2018-06-29T08:20:44.692Z,46.90
2018-06-29T08:23:18.616Z,46.60
2018-06-29T08:25:53.006Z,46.50
2018-06-29T08:28:26.974Z,46.40
2018-06-29T08:31:02.674Z,46.90
2018-06-29T08:33:36.793Z,47.30
2018-06-29T08:36:11.652Z,47.30
2018-06-29T08:38:48.241Z,47.60
2018-06-29T08:43:56.954Z,47.70
2018-06-29T08:46:30.880Z,47.40
2018-06-29T08:51:37.975Z,47.30
2018-06-29T08:56:44.528Z,46.80
2018-06-29T08:59:19.401Z,47.00
2018-06-29T09:01:53.414Z,46.60
2018-06-29T09:07:00.803Z,47.20
2018-06-29T09:09:35.490Z,46.40
2018-06-29T09:12:09.660Z,46.20
2018-06-29T09:14:43.668Z,46.30
2018-06-29T09:17:17.907Z,46.70
2018-06-29T09:19:53.275Z,46.90
2018-06-29T09:22:27.213Z,46.80
2018-06-29T09:25:01.632Z,46.80
2018-06-29T09:27:35.787Z,46.80
2018-06-29T09:32:45.603Z,47.20
2018-06-29T09:35:19.474Z,47.20
2018-06-29T09:37:53.451Z,47.20
2018-06-29T09:40:27.285Z,46.90
2018-06-29T09:45:34.278Z,46.90
2018-06-29T09:48:08.526Z,47.00
2018-06-29T09:50:42.836Z,46.90
2018-06-29T09:53:19.599Z,46.90
2018-06-29T09:55:53.726Z,47.00
2018-06-29T09:58:42.097Z,47.20
2018-06-29T10:01:16.724Z,46.90
2018-06-29T10:03:50.998Z,47.30
2018-06-29T10:06:26.822Z,47.50
2018-06-29T10:14:21.926Z,47.70
2018-06-29T10:16:55.816Z,47.70
2018-06-29T10:19:30.010Z,47.90
2018-06-29T10:22:04.231Z,48.00
2018-06-29T10:24:37.941Z,48.10
2018-06-29T10:27:12.105Z,48.10
2018-06-29T10:32:20.980Z,48.40
2018-06-29T10:34:56.153Z,48.60
2018-06-29T10:37:31.265Z,48.60
2018-06-29T10:40:07.756Z,48.50
2018-06-29T10:42:43.472Z,48.70
2018-06-29T10:45:17.741Z,48.80
2018-06-29T10:47:53.304Z,49.00
2018-06-29T10:50:27.460Z,49.20
2018-06-29T10:53:02.891Z,49.20
2018-06-29T10:55:36.803Z,49.30
2018-06-29T10:58:11.234Z,49.50
2018-06-29T11:00:45.598Z,49.40
2018-06-29T11:03:20.585Z,49.30
2018-06-29T11:08:28.159Z,49.30
2018-06-29T11:11:02.175Z,49.40
2018-06-29T11:13:36.723Z,49.40
2018-06-29T11:16:11.898Z,49.50
2018-06-29T11:18:45.817Z,49.30
2018-06-29T11:21:20.064Z,49.20
2018-06-29T11:23:54.523Z,49.20
2018-06-29T11:26:28.372Z,49.40
2018-06-29T11:32:05.699Z,49.70
2018-06-29T11:34:40.370Z,50.10
2018-06-29T11:37:14.966Z,50.50
2018-06-29T11:39:49.735Z,50.70
2018-06-29T11:42:23.234Z,51.10
2018-06-29T11:44:57.081Z,51.30
2018-06-29T11:47:31.628Z,51.60
2018-06-29T11:50:05.543Z,51.70
2018-06-29T11:52:40.356Z,52.10
2018-06-29T11:55:14.279Z,52.20
2018-06-29T11:57:49.383Z,52.30
2018-06-29T12:00:24.285Z,53.10
2018-06-29T12:02:59.133Z,52.60
2018-06-29T12:05:33.271Z,52.70
2018-06-29T12:08:07.385Z,52.80
2018-06-29T12:10:41.800Z,53.00
2018-06-29T12:15:48.460Z,53.40
2018-06-29T12:18:23.623Z,53.50
2018-06-29T12:20:57.701Z,53.60
2018-06-29T12:23:31.994Z,53.70
2018-06-29T12:26:06.835Z,53.90
2018-06-29T12:28:40.589Z,53.90
2018-06-29T12:31:14.814Z,53.90
2018-06-29T12:33:48.936Z,54.00
2018-06-29T12:36:22.913Z,54.00
2018-06-29T12:38:58.276Z,54.10
2018-06-29T12:41:33.228Z,54.20
2018-06-29T12:46:40.207Z,54.40
2018-06-29T12:51:46.542Z,54.50
2018-06-29T12:54:20.508Z,54.50
2018-06-29T12:56:54.301Z,54.40
2018-06-29T12:59:29.709Z,54.50
2018-06-29T13:28:46.154Z,55.00
2018-06-29T13:31:21.210Z,54.50
2018-06-29T13:33:55.176Z,56.60
2018-06-29T13:36:29.235Z,57.00
2018-06-29T13:39:03.948Z,57.10
2018-06-29T13:41:37.918Z,57.10
2018-06-29T13:44:11.678Z,57.80
2018-06-29T13:46:45.916Z,57.10
2018-06-29T13:49:20.358Z,57.00
2018-06-29T13:51:54.430Z,56.90
2018-06-29T13:54:28.519Z,56.70
2018-06-29T13:57:03.346Z,56.60
2018-06-29T13:59:37.273Z,56.60
2018-06-29T14:02:11.868Z,57.30
2018-06-29T14:04:45.912Z,56.60
2018-06-29T14:07:19.917Z,56.70
2018-06-29T14:09:53.834Z,56.70
2018-06-29T14:12:27.687Z,56.80
2018-06-29T14:15:01.853Z,56.80
2018-06-29T14:17:36.120Z,56.90
2018-06-29T14:20:10.282Z,56.80
2018-06-29T14:22:45.342Z,56.80
2018-06-29T14:25:19.279Z,56.90
2018-06-29T14:27:53.624Z,56.90
2018-06-29T14:30:27.528Z,57.00
2018-06-29T14:33:02.657Z,56.90
2018-06-29T14:35:37.102Z,57.00
2018-06-29T14:38:11.164Z,56.90
2018-06-29T14:43:50.683Z,56.80
2018-06-29T14:46:24.991Z,56.80
2018-06-29T14:48:58.924Z,56.90
2018-06-29T14:51:33.093Z,57.10
2018-06-29T14:54:06.951Z,56.60
2018-06-29T14:56:42.377Z,57.20
2018-06-29T14:59:16.121Z,57.30
2018-06-29T15:01:50.265Z,57.40
2018-06-29T15:04:24.419Z,57.50
2018-06-29T15:06:58.388Z,57.50
2018-06-29T15:09:32.612Z,57.50
2018-06-29T15:12:07.566Z,57.80
2018-06-29T15:14:41.417Z,57.90
2018-06-29T15:17:15.612Z,58.00
2018-06-29T15:19:50.028Z,58.10
2018-06-29T15:22:23.985Z,58.70
2018-06-29T15:24:58.376Z,58.10
2018-06-29T15:30:05.012Z,58.30
2018-06-29T15:32:39.490Z,58.30
2018-06-29T15:35:13.552Z,58.30
2018-06-29T15:37:47.688Z,58.40
2018-06-29T15:40:21.715Z,58.40
2018-06-29T15:42:56.898Z,58.50
2018-06-29T15:45:30.920Z,59.00
2018-06-29T15:48:04.986Z,58.60
2018-06-29T15:53:11.499Z,58.80
2018-06-29T15:55:46.009Z,58.80
2018-06-29T15:58:20.060Z,58.80
2018-06-29T16:00:54.808Z,58.90
2018-06-29T16:03:28.594Z,58.80
2018-06-29T16:06:02.861Z,58.90
2018-06-29T16:08:36.801Z,58.90
2018-06-29T16:11:11.196Z,59.00
2018-06-29T16:16:17.563Z,59.00
2018-06-29T16:18:51.510Z,59.00
2018-06-29T16:21:27.287Z,59.20
2018-06-29T16:24:02.095Z,59.20
2018-06-29T16:26:36.655Z,59.30
2018-06-29T16:29:10.714Z,59.30
2018-06-29T16:31:44.762Z,59.30
2018-06-29T16:34:19.016Z,59.50
2018-06-29T16:36:52.719Z,59.50
2018-06-29T16:39:26.807Z,59.60
2018-06-29T16:42:01.224Z,59.60
2018-06-29T16:44:36.115Z,59.70
2018-06-29T16:47:10.200Z,59.80
2018-06-29T16:49:44.641Z,59.90
2018-06-29T16:52:18.488Z,60.10
2018-06-29T16:54:52.524Z,60.20
2018-06-29T16:57:26.460Z,60.20
2018-06-29T17:02:32.582Z,60.70
2018-06-29T17:05:07.466Z,60.70
2018-06-29T17:07:41.256Z,60.70
2018-06-29T17:10:15.482Z,60.70
2018-06-29T17:12:49.406Z,60.90
2018-06-29T17:15:24.062Z,61.10
2018-06-29T17:17:57.981Z,61.30
2018-06-29T17:20:31.922Z,61.40
2018-06-29T17:23:05.747Z,61.50
2018-06-29T17:25:39.681Z,61.60
2018-06-29T17:28:13.766Z,62.00
2018-06-29T17:33:32.046Z,62.20
2018-06-29T17:35:54.366Z,62.20
2018-06-29T17:38:28.871Z,62.30
2018-06-29T17:41:02.330Z,62.40
2018-06-29T17:43:36.911Z,62.50
2018-06-29T17:46:11.851Z,63.20
2018-06-29T17:48:46.199Z,62.90
2018-06-29T17:53:53.907Z,63.30
2018-06-29T17:56:28.613Z,63.10
2018-06-29T17:59:02.894Z,63.30
2018-06-29T18:01:37.394Z,63.30
2018-06-29T18:04:11.277Z,64.30
2018-06-29T18:09:18.037Z,62.30
2018-06-29T18:11:52.588Z,61.90
2018-06-29T18:14:27.221Z,61.70
2018-06-29T18:17:01.325Z,61.70
2018-06-29T18:19:35.513Z,61.60
2018-06-29T18:22:09.348Z,61.60
2018-06-29T18:24:43.624Z,61.60
2018-06-29T18:27:17.510Z,61.70
2018-06-29T18:29:51.447Z,61.70
2018-06-29T18:32:25.521Z,61.60
2018-06-29T18:34:59.818Z,61.50
2018-06-29T18:37:33.752Z,61.60
2018-06-29T18:40:08.359Z,62.10
2018-06-29T18:42:41.815Z,62.20
2018-06-29T18:45:15.875Z,62.30
2018-06-29T18:50:23.062Z,62.20
2018-06-29T18:52:57.521Z,62.90
2018-06-29T18:55:31.583Z,63.10
2018-06-29T18:58:05.606Z,63.40
2018-06-29T19:00:39.423Z,63.70
2018-06-29T19:03:13.533Z,63.60
2018-06-29T19:05:47.370Z,63.40
2018-06-29T19:08:22.887Z,64.00
2018-06-29T19:10:57.057Z,64.10
2018-06-29T19:13:31.019Z,64.00
2018-06-29T19:18:37.898Z,64.20
2018-06-29T19:21:12.055Z,64.40
2018-06-29T19:23:45.912Z,64.50
2018-06-29T19:26:20.598Z,64.70
2018-06-29T19:28:54.704Z,64.60
2018-06-29T19:31:29.046Z,64.60
2018-06-29T19:34:02.725Z,65.00
2018-06-29T19:36:36.780Z,64.90
2018-06-29T19:39:13.574Z,64.90
2018-06-29T19:41:47.802Z,64.50
2018-06-29T19:44:21.555Z,64.40
2018-06-29T19:46:55.666Z,64.20
2018-06-29T19:49:31.455Z,64.40
2018-06-29T19:52:05.331Z,64.30
2018-06-29T19:54:39.466Z,63.90
2018-06-29T19:57:13.442Z,63.70
2018-06-29T19:59:47.688Z,63.70
2018-06-29T20:02:22.574Z,63.50
2018-06-29T20:04:57.539Z,63.40
2018-06-29T20:07:31.688Z,63.20
2018-06-29T20:10:05.746Z,63.20
2018-06-29T20:12:39.540Z,62.70
2018-06-29T20:15:15.834Z,62.50
2018-06-29T20:17:49.667Z,62.40
2018-06-29T20:20:23.927Z,62.10
2018-06-29T20:22:57.827Z,62.10
2018-06-29T20:28:04.868Z,62.10
2018-06-29T20:30:39.076Z,61.50
2018-06-29T20:33:13.419Z,61.30
2018-06-29T20:35:47.970Z,61.20
2018-06-29T20:38:22.135Z,61.20
2018-06-29T20:40:56.761Z,61.10
2018-06-29T20:43:30.588Z,61.20
2018-06-29T20:46:05.358Z,61.30
2018-06-29T20:51:13.621Z,61.40
2018-06-29T20:53:47.648Z,61.50
2018-06-29T20:56:21.957Z,61.60
2018-06-29T20:58:56.617Z,61.80
2018-06-29T21:01:30.623Z,61.80
2018-06-29T21:04:04.608Z,62.00
2018-06-29T21:06:38.617Z,62.00
2018-06-29T21:09:14.096Z,62.00
2018-06-29T21:11:48.411Z,62.10
2018-06-29T21:14:22.873Z,62.10
2018-06-29T21:16:57.081Z,62.50
2018-06-29T21:19:31.407Z,62.10
2018-06-29T21:22:05.626Z,62.20
2018-06-29T21:24:39.821Z,62.10
2018-06-29T21:27:13.735Z,62.10
2018-06-29T21:32:20.278Z,62.40
2018-06-29T21:34:55.182Z,62.30
2018-06-29T21:37:29.447Z,62.40
2018-06-29T21:40:03.862Z,62.50
2018-06-29T21:42:37.460Z,62.70
2018-06-29T21:45:11.714Z,62.80
2018-06-29T21:47:45.614Z,62.30
2018-06-29T21:50:19.529Z,62.10
2018-06-29T21:55:26.851Z,62.00
2018-06-29T21:58:00.836Z,61.90
2018-06-29T22:00:39.442Z,61.80
2018-06-29T22:03:14.726Z,61.80
2018-06-29T22:05:49.186Z,61.80
2018-06-29T22:08:22.921Z,62.00
2018-06-29T22:10:57.746Z,62.30
2018-06-29T22:13:31.787Z,62.30
2018-06-29T22:16:06.526Z,62.10
2018-06-29T22:18:40.463Z,61.90
2018-06-29T22:21:14.532Z,61.80
2018-06-29T22:23:49.645Z,61.80
2018-06-29T22:26:23.672Z,61.90
2018-06-29T22:28:57.741Z,61.70
2018-06-29T22:31:31.814Z,61.60
2018-06-29T22:34:05.454Z,61.60
2018-06-29T22:36:40.147Z,61.50
2018-06-29T23:24:45.596Z,61.50
2018-06-29T23:27:19.615Z,61.40
2018-06-29T23:29:53.893Z,66.50
2018-06-29T23:32:27.997Z,66.80
2018-06-29T23:35:01.761Z,67.00
2018-06-29T23:40:09.130Z,66.70
2018-06-29T23:42:42.965Z,66.30
2018-06-29T23:45:17.216Z,65.80
2018-06-29T23:47:51.421Z,65.60
2018-06-29T23:50:25.426Z,65.30
2018-06-29T23:55:33.951Z,65.10
2018-06-29T23:58:07.663Z,65.10
